Aviation Digital Data Service (ADDS)

Output produced by METARs form (0635 UTC 27 March 2017)
found at http://www.aviationweather.gov/adds/metars/
 
ENAT 270550Z 31015KT 4000 -SHSN VV019 M02/M04 Q0996 RMK WIND 700FT 32020KT
TAF ENAT 270500Z 2706/2715 33012KT 9999 -SHSN FEW008 BKN018 
     TEMPO 2706/2715 1000 SHSN VV008
       
ENAN 270620Z 00000KT 2000 -SN VV008 M01/M02 Q0998
TAF ENAN 2706/2806 19009KT 9999 -SN FEW015 BKN030 
     TEMPO 2706/2806 2000 SHSN BKN008 
     TEMPO 2712/2724 FEW015CB 
     TEMPO 2710/2724 32025G35KT
       
ENML 270620Z 27023KT 9999 SCT015 BKN025 09/06 Q1019
TAF ENML 270500Z 2706/2715 27018KT 9999 -RA FEW008 BKN020 
     TEMPO 2706/2713 4000 -RA BKN012 
     BECMG 2713/2715 VRB08KT
       
ENNA 270620Z 31008KT 9999 SCT018 SCT037 M02/M06 Q0995 RMK WIND 1800FT 32024KT
TAF ENNA 2706/2806 32018KT 9999 FEW020 BKN025 
     TEMPO 2706/2806 34025G35KT 0800 SHSN VV005 
     TEMPO 2706/2806 SCT012CB
       
ENDU 270620Z 00000KT 9000 4000N -SN FEW012 BKN025 M01/M02 Q0998 TEMPO 2000 SN VV009 RMK WIND 1100FT 29006KT WIND 2200FT 28013KT
TAF ENDU 2706/2806 27008KT 9999 -SN FEW015 BKN030 
     TEMPO 2706/2712 1200 SHSN VV007 
     TEMPO 2712/2806 32015G25KT 0700 SHSN VV004
       
ENBS 270550Z 33022KT 9999 VCSH SCT025 BKN040 M03/M08 Q0990
ENBR 270620Z 30003KT 230V360 0250 R17/0600N R35/0650N FG VV001 06/05 Q1024 TEMPO 0400 FG RMK WIND 1200FT 30004KT
TAF ENBR 2706/2806 34005KT 0300 FG VV002 
     TEMPO 2706/2709 2500 BCFG BR BKN003 
     BECMG 2708/2710 9999 FEW008 SCT015 
     PROB30 2721/2806 0300 FG VV002
       
ENBO 270620Z 04004KT 310V060 4000 RADZ VV014 00/00 Q0998 BECMG 32015KT TEMPO 1200 SN VV006
TAF ENBO 2706/2806 VRB05KT 9999 -SN FEW010 BKN025 
     TEMPO 2706/2709 1200 SN VV008 
     BECMG 2707/2709 32020KT 
     TEMPO 2708/2806 SCT012CB 
     TEMPO 2708/2806 33025G35KT 0800 SHSNGS VV005
       
ENBL 270620Z 30002KT 1200 BCFG -DZ VV005 04/03 Q1023
ENBN 270620Z 25021KT 5000 -RA BR OVC006 06/06 Q1005
TAF ENBN 270500Z 2706/2715 23020G30KT 9999 -RA BKN012 
     TEMPO 2706/2715 3000 RA BR VV004
       
ENEV 270550Z 21004KT 180V240 2500 -SN VV007 00/00 Q0998 RMK WIND 1400FT 24017KT
TAF ENEV 270500Z 2706/2715 24008KT 9999 -SN FEW008 BKN025 
     TEMPO 2706/2715 1000 SHSN VV005 
     BECMG 2707/2709 32010KT 
     TEMPO 2712/2715 34015G25KT
       
ENFL 270620Z 20006KT 2300 -DZ BR VV003 06/06 Q1024
TAF ENFL 270500Z 2706/2715 VRB05KT 1500 -DZ BR SCT003 BKN005 
     TEMPO 2706/2708 0400 FG VV001 
     BECMG 2707/2709 9999 SCT008 BKN015
       
ENHK 270550Z 32020KT 9999 VCSH FEW012 SCT022 BKN033 M01/M05 Q0996
ENHD 270620Z 35010KT 0250 R14/0400N R32/0450N FG VV001 05/05 Q1024
TAF ENHD 270500Z 2706/2715 34008KT 0800 FG VV003 
     TEMPO 2706/2708 0300 FG VV001 
     BECMG 2707/2709 9999 SCT004 SCT015
       
ENKR 270620Z 27011KT 3300 -SN VV015 M04/M06 Q0993 RMK WIND 731FT 27017KT
TAF ENKR 270500Z 2706/2715 28012KT 9999 FEW015 BKN030
       
ENMS 270620Z VRB06G18KT 7000 RADZ SCT018 BKN027 06/04 Q1003 RMK WIND 412FT 27019G34KT 230V340
ENCN 270620Z 05005KT CAVOK 04/03 Q1021
TAF ENCN 270500Z 2706/2715 05005KT 9999 FEW005 
     BECMG 2710/2712 24010KT
       
ENKB 270620Z 25030G43KT 9999 SCT008 BKN011 07/06 Q1017 RMK WIND 745FT 25043G57KT
TAF ENKB 270500Z 2706/2715 24022KT 9999 SCT008 BKN015 
     TEMPO 2706/2709 26028G40KT 
     TEMPO 2706/2712 2500 RADZ BKN004 
     BECMG 2710/2713 30012KT
       
ENNO 270550Z VRB01KT CAVOK M01/M01 Q1022
TAF ENNO 270500Z 2706/2715 30005KT CAVOK
       
ENOL 270620Z 25028KT 9999 VCSH FEW007 BKN010 07/06 Q1014 TEMPO 25030G40KT 2500 RADZ SCT002 BKN005 RMK WIND RWY33 25028G41KT
TAF ENOL 2706/2806 25020KT 8000 -RADZ BKN012 
     TEMPO 2706/2710 26030G40KT 2500 RADZ SCT002 BKN005 
     BECMG 2710/2712 33020KT -SHRA FEW015TCU BKN025
       
ENGM 270620Z 15004KT 110V200 CAVOK 04/02 Q1018 NOSIG
TAF ENGM 2706/2806 33005KT CAVOK
       
ENRO 270520Z VRB02KT 9999 SCT047 03/02 Q1014
TAF ENRO 270500Z 2706/2715 29008KT 9999 SCT015 BKN025 
     TEMPO 2706/2715 29015G30KT
       
ENRY 270620Z 12002KT 0300 R12/0700 R30/0650 FG VV002 00/00 Q1021 TEMPO 1200 BCFG SCT002
TAF ENRY 2706/2806 18005KT 9999 FEW005 
     PROB30 2706/2708 0300 FG VV004
       
ENSO 270620Z 32005KT 0300 FG VV001 06/05 Q1024
TAF ENSO 270500Z 2706/2715 VRB05KT 0800 FG VV004 
     TEMPO 2706/2707 0300 FG VV001 
     BECMG 2707/2709 9999 FEW008 SCT015
       
ENSG 270550Z 24003KT 0600 FG VV003 03/03 Q1022 RMK WIND 3806FT 27024KT
ENSR 270620Z 35011KT 2000 SHSN VV012 M01/M02 Q0997 WIND 1119FT 31012KT
ENZV 270620Z 35003KT 0350 R18/0500N R36/0450U FG VV001 03/03 Q1024 TEMPO 0600 FG
TAF ENZV 2706/2806 34005KT 0200 FG VV001 
     PROB40 2706/2708 2000 BCFG BKN003 
     BECMG 2708/2711 9999 FEW004 SCT010 
     PROB30 2721/2724 0300 FG VV001
       
ENST 270620Z 24016KT 5000 -RADZ SCT006 BKN008 06/05 Q1003 RMK WIND 300FT 26022KT
ENSS 270620Z 33027KT 9999 FEW040 BKN048 M02/M08 Q0990 RMK WIND 500FT 33032KT
ENTO 270620Z VRB03KT 9999 VCFG NSC 08/06 Q1020
TAF ENTO 2706/2806 VRB05KT CAVOK
       
ENTC 270620Z 18002KT 5000 -SHSN VV015 M02/M02 Q0998 TEMPO 1000 -SHSN VV008 RMK WIND 2600FT 32020KT
TAF ENTC 2706/2806 24005KT 9999 -SHSN FEW012 BKN025 
     TEMPO 2706/2806 0800 SHSN VV006 
     BECMG 2708/2710 35010KT
       
ENVA 270620Z 29015KT 9999 VCSH SCT016 BKN021 08/06 Q1014 REDZRA TEMPO 27018G28KT 4000 -DZRA BKN012 RMK WIND 670FT 28019G32KT
TAF ENVA 2706/2806 25018KT 9999 -RA SCT010 BKN015 
     TEMPO 2706/2712 27025G35KT 2500 DZRA BR BKN004 
     BECMG 2712/2715 28008KT
       
ENAL 270620Z 23017KT 9999 SCT005 BKN011 07/06 Q1021
TAF ENAL 270500Z 2706/2715 24018KT 9999 FEW008 BKN015 
     TEMPO 2706/2710 24022G32KT 3000 -DZRA BR BKN004 
     BECMG 2711/2713 30008KT